Time;durP1;ratioP1;P1;durP2;ratioP2;P2;SDS_P1;SDS_P2;PMS_P1;PMS_P2;Temp;Humidity;BMP_temperature;BMP_pressure;BME280_temperature;BME280_humidity;BME280_pressure;Samples;Min_cycle;Max_cycle;Signal;HPM_P1;HPM_P2
2022/05/03 00:02:22;;;;;;;;;46.00;35.33;;;;;30.83;20.14;101262.75;5077561;27;45348;-83
2022/05/03 00:05:07;;;;;;;;;46.00;37.00;;;;;30.98;20.24;101268.28;5076255;28;46163;-83
2022/05/03 00:07:41;;;;;;;;;40.67;34.00;;;;;30.87;20.03;101263.44;5077790;28;45587;-83
2022/05/03 00:10:18;;;;;;;;;36.33;32.00;;;;;30.91;20.01;101254.94;5076656;28;45319;-83
2022/05/03 00:13:05;;;;;;;;;38.67;33.67;;;;;30.72;20.38;101257.88;5077620;27;45409;-83
2022/05/03 00:15:34;;;;;;;;;40.00;35.00;;;;;30.62;20.29;101249.31;5077099;28;45356;-83
2022/05/03 00:18:01;;;;;;;;;39.33;33.33;;;;;30.36;20.54;101223.38;5076106;28;45544;-82
2022/05/03 00:20:27;;;;;;;;;38.33;33.67;;;;;30.43;20.51;101238.50;5077714;27;45602;-83
2022/05/03 00:22:54;;;;;;;;;42.67;36.00;;;;;30.53;20.49;101240.75;5076094;28;47295;-82
2022/05/03 00:25:20;;;;;;;;;35.67;31.67;;;;;30.42;20.28;101231.25;5077760;27;45321;-83
2022/05/03 00:27:45;;;;;;;;;39.00;33.67;;;;;30.33;20.78;101239.13;5076215;28;45548;-83
2022/05/03 00:30:11;;;;;;;;;43.00;37.00;;;;;30.25;20.43;101224.00;5077456;28;45438;-82
2022/05/03 00:32:39;;;;;;;;;43.67;36.00;;;;;30.27;20.56;101227.53;5076192;28;47197;-83
2022/05/03 00:35:06;;;;;;;;;41.33;34.33;;;;;30.41;20.26;101237.69;5077682;28;45477;-83
2022/05/03 00:37:32;;;;;;;;;35.67;33.33;;;;;30.18;20.53;101218.97;5076093;28;45488;-82
2022/05/03 00:39:57;;;;;;;;;37.67;34.67;;;;;30.10;20.48;101217.53;5077262;28;45325;-82
2022/05/03 00:42:29;;;;;;;;;38.33;33.00;;;;;30.20;20.51;101223.38;5076042;28;48332;-82
2022/05/03 00:45:16;;;;;;;;;43.67;36.33;;;;;30.28;20.27;101234.78;5075935;28;46001;-82
2022/05/03 00:47:53;;;;;;;;;42.67;34.67;;;;;29.94;20.60;101211.16;5075952;28;45414;-83
2022/05/03 00:50:37;;;;;;;;;47.67;37.00;;;;;30.07;20.52;101239.59;5076300;28;45509;-84
2022/05/03 00:53:14;;;;;;;;;40.00;34.00;;;;;30.09;20.69;101234.91;5077135;27;46242;-84
2022/05/03 00:55:45;;;;;;;;;36.00;34.00;;;;;30.04;20.77;101237.03;5077235;28;45397;-85
2022/05/03 00:58:29;;;;;;;;;39.00;33.67;;;;;29.98;20.78;101240.09;5077373;28;45496;-84
2022/05/03 01:01:27;;;;;;;;;46.00;37.00;;;;;30.02;20.71;101233.50;5076688;27;45609;-85
2022/05/03 01:04:15;;;;;;;;;42.00;35.33;;;;;29.94;20.32;101217.53;5076951;27;45415;-85
2022/05/03 01:06:59;;;;;;;;;39.67;34.00;;;;;30.05;20.64;101241.53;5077010;27;45424;-85
2022/05/03 01:09:43;;;;;;;;;42.33;34.00;;;;;29.87;20.70;101217.94;5077196;27;45457;-84
2022/05/03 01:12:25;;;;;;;;;44.00;37.00;;;;;30.06;20.64;101235.09;5075475;28;45609;-84
2022/05/03 01:15:07;;;;;;;;;42.67;35.00;;;;;29.97;20.68;101237.44;5076193;27;46122;-84
2022/05/03 01:17:44;;;;;;;;;36.00;32.33;;;;;29.96;20.77;101228.38;5075499;28;45999;-85
2022/05/03 01:20:18;;;;;;;;;36.33;33.33;;;;;29.73;20.73;101194.03;5075548;28;45405;-84
2022/05/03 01:22:52;;;;;;;;;42.33;37.00;;;;;29.87;20.91;101227.03;5076513;27;45394;-84
2022/05/03 01:25:33;;;;;;;;;36.67;34.00;;;;;29.73;20.87;101218.63;5076809;27;45357;-84
2022/05/03 01:28:16;;;;;;;;;36.00;34.00;;;;;29.89;20.77;101227.81;5075396;28;45501;-85
2022/05/03 01:30:49;;;;;;;;;34.67;33.33;;;;;29.82;20.81;101215.41;5076975;27;45425;-84
2022/05/03 01:33:22;;;;;;;;;40.67;35.00;;;;;29.96;20.61;101217.44;5077059;28;45354;-85
2022/05/03 01:35:51;;;;;;;;;41.67;34.00;;;;;29.75;20.55;101182.03;5076524;27;46423;-85
2022/05/03 01:38:38;;;;;;;;;34.00;32.67;;;;;29.83;20.04;101213.56;5075184;28;45470;-85
2022/05/03 01:41:28;;;;;;;;;40.00;34.00;;;;;29.74;20.88;101204.00;5076513;27;45388;-85
2022/05/03 01:44:18;;;;;;;;;38.67;33.33;;;;;29.80;20.77;101227.41;5074994;28;45404;-85
2022/05/03 01:46:43;;;;;;;;;44.00;36.33;;;;;29.69;20.62;101207.00;5075028;28;47563;-85
2022/05/03 01:52:32;;;;;;;;;41.33;34.00;;;;;29.79;20.83;101223.78;5076529;28;45460;-85
2022/05/03 01:55:08;;;;;;;;;47.67;38.00;;;;;29.73;20.83;101213.16;5076322;27;45371;-84
2022/05/03 01:57:46;;;;;;;;;37.33;32.00;;;;;29.75;20.91;101223.06;5074723;28;48133;-85
2022/05/03 02:00:11;;;;;;;;;40.00;35.00;;;;;29.68;20.86;101198.88;5076364;27;45423;-85
2022/05/03 02:03:19;;;;;;;;;41.00;33.67;;;;;29.68;20.68;101212.56;5076484;28;45449;-85
2022/05/03 02:05:53;;;;;;;;;37.00;32.67;;;;;29.64;20.88;101206.34;5076193;27;45639;-84
2022/05/03 02:08:21;;;;;;;;;36.33;32.33;;;;;29.56;21.00;101205.88;5074620;28;46956;-84
2022/05/03 02:10:53;;;;;;;;;42.00;35.00;;;;;29.58;20.87;101201.22;5076192;27;45246;-85
2022/05/03 02:14:43;;;;;;;;;40.67;34.33;;;;;29.65;20.84;101202.66;5074773;28;45398;-84
2022/05/03 02:16:29;;;;;;;;;39.00;34.00;;;;;29.59;20.92;101194.78;5075800;28;45588;-83
2022/05/03 02:19:51;;;;;;;;;35.67;33.67;;;;;29.57;20.67;101208.53;5075871;27;45362;-84
2022/05/03 02:22:19;;;;;;;;;34.67;32.00;;;;;29.53;21.13;101211.53;5075765;27;45376;-83
2022/05/03 02:24:57;;;;;;;;;38.00;32.00;;;;;29.54;20.71;101205.09;5074240;28;45453;-83
2022/05/03 02:27:25;;;;;;;;;38.67;34.00;;;;;29.45;20.85;101195.50;5074104;28;45551;-83
2022/05/03 02:29:51;;;;;;;;;36.67;32.00;;;;;29.14;20.97;101152.50;5075541;28;45574;-84
2022/05/03 02:32:24;;;;;;;;;42.33;34.67;;;;;29.42;20.72;101184.75;5074072;28;45489;-83
2022/05/03 02:35:17;;;;;;;;;38.67;34.00;;;;;29.44;20.76;101196.50;5074246;28;45365;-83
2022/05/03 02:37:55;;;;;;;;;35.00;32.00;;;;;29.31;20.80;101188.09;5075424;27;45585;-83
2022/05/03 02:40:27;;;;;;;;;37.33;33.33;;;;;29.08;21.03;101172.84;5073769;28;47631;-84
2022/05/03 02:42:54;;;;;;;;;31.33;30.33;;;;;29.18;21.15;101197.84;5075133;27;45596;-84
2022/05/03 02:45:19;;;;;;;;;32.33;29.67;;;;;29.11;21.11;101183.59;5075778;28;45420;-85
2022/05/03 02:47:50;;;;;;;;;46.00;37.00;;;;;29.29;21.03;101203.66;5074061;28;45526;-84
2022/05/03 02:50:25;;;;;;;;;32.00;28.67;;;;;29.35;20.92;101211.56;5075441;27;45518;-84
2022/05/03 02:53:02;;;;;;;;;38.00;34.67;;;;;29.14;21.06;101194.41;5075259;27;45430;-85
2022/05/03 02:55:43;;;;;;;;;30.67;30.67;;;;;29.11;21.06;101204.59;5075327;27;45470;-84
2022/05/03 02:58:14;;;;;;;;;37.00;31.67;;;;;29.18;20.82;101217.84;5075537;27;45405;-84
2022/05/03 03:04:03;;;;;;;;;32.33;28.00;;;;;29.12;21.03;101222.75;5032667;28;46453;-85
2022/05/03 03:06:36;;;;;;;;;38.00;33.67;;;;;29.03;21.32;101196.78;5032932;28;45485;-84
2022/05/03 03:09:03;;;;;;;;;36.00;32.67;;;;;29.06;21.09;101194.78;5032323;28;45544;-85
2022/05/03 03:11:38;;;;;;;;;33.00;30.33;;;;;29.11;21.35;101220.97;5032400;28;45515;-84
2022/05/03 03:14:10;;;;;;;;;33.00;29.67;;;;;29.14;20.95;101218.09;5032534;28;45419;-85
2022/05/03 03:16:48;;;;;;;;;34.67;30.00;;;;;28.85;21.36;101194.03;5032804;28;45308;-85
2022/05/03 03:19:36;;;;;;;;;39.00;34.33;;;;;28.90;21.40;101213.81;5032497;28;45415;-85
2022/05/03 03:22:02;;;;;;;;;30.33;30.33;;;;;28.78;21.20;101194.44;5032011;28;48364;-84
2022/05/03 03:24:29;;;;;;;;;38.00;33.00;;;;;28.85;21.17;101196.78;5032108;28;45454;-83
2022/05/03 03:26:57;;;;;;;;;35.67;33.67;;;;;28.89;21.34;101202.97;5015356;28;45608;-84
2022/05/03 03:29:24;;;;;;;;;33.00;30.33;;;;;28.69;20.95;101157.53;5015857;28;45628;-83
2022/05/03 03:31:51;;;;;;;;;30.67;29.33;;;;;28.96;21.10;101187.13;5031943;28;47833;-83
2022/05/03 03:34:20;;;;;;;;;34.33;31.33;;;;;28.83;21.15;101184.16;5031955;28;45405;-84
2022/05/03 03:36:49;;;;;;;;;37.33;33.67;;;;;28.78;21.21;101197.16;5015393;28;45384;-84
2022/05/03 03:39:14;;;;;;;;;29.00;27.00;;;;;28.83;21.02;101174.13;5031733;28;45498;-84
2022/05/03 03:41:41;;;;;;;;;36.67;32.33;;;;;28.86;21.43;101203.09;5053716;28;46101;-84
2022/05/03 03:44:06;;;;;;;;;39.67;33.00;;;;;28.71;21.23;101163.81;5054422;28;45306;-84
2022/05/03 03:46:33;;;;;;;;;37.33;34.33;;;;;28.78;21.56;101180.78;5053183;28;45821;-84
2022/05/03 03:48:58;;;;;;;;;34.67;30.67;;;;;28.52;21.20;101152.91;5053145;28;45363;-84
2022/05/03 03:51:25;;;;;;;;;35.00;29.33;;;;;28.71;21.48;101175.63;5054169;28;47331;-84
2022/05/03 03:53:51;;;;;;;;;38.67;33.33;;;;;28.56;21.21;101149.97;5057787;28;45406;-85
2022/05/03 03:56:17;;;;;;;;;36.67;33.00;;;;;28.71;21.27;101170.16;5057188;28;45474;-85
2022/05/03 03:58:43;;;;;;;;;38.00;34.00;;;;;28.87;21.34;101197.56;5058143;28;45498;-85
2022/05/03 04:01:09;;;;;;;;;37.33;33.67;;;;;29.00;21.08;101200.56;5056473;28;48388;-84
2022/05/03 04:03:37;;;;;;;;;35.33;29.67;;;;;28.85;21.38;101182.25;5057952;28;45394;-84
2022/05/03 04:06:03;;;;;;;;;39.00;34.00;;;;;28.63;21.10;101152.41;5056552;28;45466;-85
2022/05/03 04:08:30;;;;;;;;;31.33;30.00;;;;;28.73;21.67;101189.19;5057489;28;45513;-85
2022/05/03 04:10:55;;;;;;;;;38.00;32.67;;;;;28.50;21.17;101141.19;5057555;28;45526;-84
2022/05/03 04:13:20;;;;;;;;;37.33;33.33;;;;;28.88;21.18;101184.81;5057838;28;45457;-84
2022/05/03 04:15:48;;;;;;;;;38.00;33.00;;;;;28.95;21.40;101194.44;5056200;28;45976;-83
2022/05/03 04:18:14;;;;;;;;;34.33;31.67;;;;;28.49;21.31;101137.56;5056126;28;45351;-83
2022/05/03 04:20:39;;;;;;;;;36.33;34.00;;;;;28.55;21.35;101140.00;5056102;28;46909;-83
2022/05/03 04:23:04;;;;;;;;;40.67;33.00;;;;;28.80;21.16;101162.47;5057340;28;45545;-82
2022/05/03 04:25:31;;;;;;;;;34.67;32.00;;;;;28.55;21.17;101141.81;5078140;27;45371;-83
2022/05/03 04:27:57;;;;;;;;;37.00;32.33;;;;;28.67;21.43;101184.06;5077793;28;45269;-85
2022/05/03 04:30:22;;;;;;;;;38.00;33.33;;;;;28.87;21.53;101213.06;5077731;27;45242;-85
2022/05/03 04:32:47;;;;;;;;;40.67;34.00;;;;;28.83;21.21;101195.97;5076543;28;45635;-85
2022/05/03 04:35:13;;;;;;;;;40.33;34.00;;;;;28.66;21.15;101176.81;5077542;28;45271;-83
2022/05/03 04:37:38;;;;;;;;;39.00;32.67;;;;;28.61;21.43;101187.94;5076053;28;45401;-84
2022/05/03 04:40:04;;;;;;;;;33.00;32.00;;;;;28.27;21.29;101121.41;5077236;27;46251;-83
2022/05/03 04:42:29;;;;;;;;;38.33;31.67;;;;;28.51;21.30;101170.22;5076066;28;45633;-82
2022/05/03 04:44:55;;;;;;;;;39.00;34.00;;;;;28.85;21.11;101220.47;5076260;28;45369;-84
2022/05/03 04:47:20;;;;;;;;;39.33;34.00;;;;;28.88;21.33;101214.84;5077773;27;45202;-82
2022/05/03 04:49:47;;;;;;;;;41.00;34.00;;;;;28.61;21.50;101179.75;5077095;27;46452;-83
2022/05/03 04:52:12;;;;;;;;;36.67;33.33;;;;;28.62;21.19;101180.63;5076564;28;45472;-82
2022/05/03 04:54:38;;;;;;;;;40.33;33.33;;;;;28.81;21.47;101195.16;5077384;27;45410;-83
2022/05/03 04:57:06;;;;;;;;;37.00;34.67;;;;;28.97;21.42;101208.03;5077150;28;45365;-83
2022/05/03 04:59:31;;;;;;;;;38.67;34.67;;;;;29.21;21.17;101219.53;5076666;28;46178;-83
2022/05/03 05:01:57;;;;;;;;;36.33;35.00;;;;;29.23;21.09;101204.88;5076587;28;45390;-78
2022/05/03 05:04:23;;;;;;;;;38.67;34.33;;;;;29.28;20.79;101196.41;5075938;28;45721;-83
2022/05/03 05:06:48;;;;;;;;;41.33;35.67;;;;;29.29;21.15;101198.19;5076653;27;45315;-83
2022/05/03 05:09:13;;;;;;;;;42.00;32.67;;;;;29.41;20.73;101205.75;5075352;28;47128;-84
2022/05/03 05:11:39;;;;;;;;;38.00;32.67;;;;;29.53;20.82;101206.06;5076924;27;45429;-82
2022/05/03 05:14:04;;;;;;;;;32.00;28.67;;;;;29.49;20.77;101207.19;5076658;27;45305;-81
2022/05/03 05:16:29;;;;;;;;;39.33;34.00;;;;;29.48;21.35;101210.88;5076942;27;45324;-82
2022/05/03 05:18:55;;;;;;;;;34.67;30.33;;;;;29.47;20.81;101220.94;5076501;27;45389;-79
2022/05/03 05:21:20;;;;;;;;;39.67;33.67;;;;;29.29;21.30;101213.72;5076231;27;45358;-81
2022/05/03 05:23:45;;;;;;;;;35.33;32.00;;;;;29.05;21.19;101193.00;5068088;28;45405;-83
2022/05/03 05:26:11;;;;;;;;;41.67;32.67;;;;;29.13;20.75;101188.97;5056130;28;45604;-77
2022/05/03 05:28:37;;;;;;;;;33.33;30.33;;;;;29.40;21.22;101241.38;5055967;28;45410;-78
2022/05/03 05:31:02;;;;;;;;;37.33;34.00;;;;;29.35;21.07;101227.94;5055990;28;45355;-82
2022/05/03 05:33:27;;;;;;;;;36.33;32.00;;;;;29.39;20.99;101226.78;5056410;28;45261;-81
2022/05/03 05:35:53;;;;;;;;;36.67;32.00;;;;;29.19;20.85;101224.22;5056117;28;45406;-79
2022/05/03 05:38:19;;;;;;;;;39.67;35.00;;;;;29.33;20.97;101246.25;5055595;28;45500;-77
2022/05/03 05:40:46;;;;;;;;;41.00;32.67;;;;;29.46;21.21;101238.28;5056143;28;45394;-79
2022/05/03 05:43:11;;;;;;;;;36.33;32.00;;;;;29.42;20.80;101237.59;5065597;28;45393;-80
2022/05/03 05:45:38;;;;;;;;;31.33;27.67;;;;;29.33;20.80;101248.13;5075268;27;45833;-79
2022/05/03 05:48:04;;;;;;;;;34.33;32.33;;;;;29.23;21.09;101247.69;5073924;27;46346;-78
2022/05/03 05:50:30;;;;;;;;;40.00;31.33;;;;;29.33;20.97;101259.06;5074885;27;45481;-78
2022/05/03 05:55:39;;;;;;;;;32.33;32.33;;;;;29.07;21.63;101242.09;5072997;28;45515;-76
2022/05/03 05:58:05;;;;;;;;;34.33;33.00;;;;;28.83;21.28;101227.84;5071465;27;46375;-78
2022/05/03 06:00:31;;;;;;;;;41.67;35.00;;;;;28.97;21.95;101249.88;5055730;27;45315;-78
2022/05/03 06:02:58;;;;;;;;;33.00;32.00;;;;;28.78;21.87;101213.56;5055570;28;45616;-83
2022/05/03 06:05:23;;;;;;;;;34.00;32.67;;;;;28.96;21.38;101247.22;5055182;28;45449;-82
2022/05/03 06:07:49;;;;;;;;;37.67;34.00;;;;;29.22;21.67;101265.03;5055351;28;46501;-83
2022/05/03 06:10:14;;;;;;;;;35.67;32.67;;;;;29.03;21.27;101255.03;5055636;28;45511;-86
2022/05/03 06:12:40;;;;;;;;;41.67;33.00;;;;;29.14;21.41;101259.97;5054725;28;45659;-86
2022/05/03 06:15:06;;;;;;;;;42.00;36.67;;;;;29.11;21.57;101261.97;5062096;28;45512;-76
2022/05/03 06:17:31;;;;;;;;;36.67;34.33;;;;;29.13;21.51;101271.84;5068268;27;45513;-76
2022/05/03 06:19:56;;;;;;;;;36.67;34.00;;;;;29.09;21.52;101272.97;5069506;28;45689;-76
2022/05/03 06:22:22;;;;;;;;;43.00;35.00;;;;;29.12;21.40;101255.53;5073192;27;45519;-76
2022/05/03 06:24:47;;;;;;;;;40.00;34.67;;;;;29.08;21.53;101255.66;5063499;27;45406;-77
2022/05/03 06:27:14;;;;;;;;;48.33;36.00;;;;;29.23;21.62;101270.44;5052928;28;46005;-76
2022/05/03 06:29:39;;;;;;;;;45.33;36.67;;;;;29.20;21.51;101265.09;5054370;28;45494;-79
2022/05/03 06:32:05;;;;;;;;;37.00;35.00;;;;;29.34;21.49;101274.47;5054978;28;45316;-79
2022/05/03 06:34:31;;;;;;;;;39.00;34.00;;;;;29.28;21.26;101255.66;5054767;28;45351;-78
2022/05/03 06:36:56;;;;;;;;;36.67;34.33;;;;;29.41;21.30;101265.88;5055296;28;46406;-78
2022/05/03 06:39:21;;;;;;;;;39.00;35.00;;;;;29.36;21.31;101276.16;5053400;28;45738;-77
2022/05/03 06:41:47;;;;;;;;;36.33;33.67;;;;;29.28;21.47;101252.94;5061358;27;45441;-81
2022/05/03 06:44:13;;;;;;;;;39.00;33.67;;;;;29.40;21.33;101283.22;5063673;27;45625;-79
2022/05/03 06:46:39;;;;;;;;;39.33;34.00;;;;;29.37;21.37;101268.88;5069490;28;45938;-79
2022/05/03 06:49:04;;;;;;;;;37.00;34.00;;;;;29.35;21.36;101268.03;5069653;28;45457;-79
2022/05/03 06:51:29;;;;;;;;;41.33;33.00;;;;;29.39;21.53;101267.78;5067709;27;45434;-77
2022/05/03 06:53:56;;;;;;;;;38.33;34.00;;;;;29.35;21.17;101271.69;5067459;27;45865;-75
2022/05/03 06:56:21;;;;;;;;;35.67;32.00;;;;;29.43;21.23;101291.28;5060111;28;46327;-77
2022/05/03 06:58:47;;;;;;;;;39.67;34.67;;;;;29.43;21.42;101274.00;5057399;27;45469;-77
2022/05/03 07:01:14;;;;;;;;;44.00;35.67;;;;;29.49;21.16;101284.59;5054995;28;46026;-76
2022/05/03 07:03:41;;;;;;;;;45.33;36.67;;;;;29.56;20.82;101266.94;5057720;28;45635;-77
2022/05/03 07:06:07;;;;;;;;;46.00;36.33;;;;;29.68;20.85;101278.19;5052797;28;46592;-78
2022/05/03 07:08:34;;;;;;;;;37.67;35.00;;;;;29.66;20.92;101283.75;5063559;27;45897;-78
2022/05/03 07:10:59;;;;;;;;;40.00;35.00;;;;;29.50;20.73;101271.84;5058943;28;45503;-78
2022/05/03 07:13:25;;;;;;;;;39.33;35.67;;;;;29.59;21.10;101255.84;5060146;28;45624;-75
2022/05/03 07:15:55;;;;;;;;;37.00;31.67;;;;;29.66;21.09;101266.44;5057748;28;47322;-75
2022/05/03 07:23:51;;;;;;;;;40.00;33.67;;;;;30.03;20.65;101275.44;5056593;27;45469;-77
2022/05/03 07:26:17;;;;;;;;;38.33;34.67;;;;;30.06;20.99;101270.66;5060178;28;46100;-77
2022/05/03 07:28:43;;;;;;;;;40.00;33.67;;;;;30.27;20.79;101295.09;5065791;28;45550;-79
2022/05/03 07:31:09;;;;;;;;;40.67;33.67;;;;;30.23;20.34;101286.16;5063275;28;46414;-76
2022/05/03 07:33:35;;;;;;;;;42.67;35.33;;;;;30.31;20.58;101288.47;5066920;28;45843;-74
2022/05/03 07:36:00;;;;;;;;;41.33;35.33;;;;;30.27;20.54;101274.06;5063698;28;46258;-75
2022/05/03 07:38:26;;;;;;;;;41.67;35.00;;;;;30.24;20.87;101290.66;5064980;27;45832;-78
2022/05/03 07:40:51;;;;;;;;;39.00;33.67;;;;;30.37;20.46;101296.34;5062936;27;45375;-79
2022/05/03 07:43:17;;;;;;;;;40.33;34.00;;;;;30.34;20.40;101296.50;5058835;27;45507;-79
2022/05/03 07:45:42;;;;;;;;;31.67;31.00;;;;;30.29;20.63;101295.88;5062024;27;45516;-79
2022/05/03 07:48:08;;;;;;;;;37.00;34.00;;;;;30.18;20.74;101284.63;5063556;28;45858;-78
2022/05/03 07:50:33;;;;;;;;;42.00;34.00;;;;;30.18;20.23;101266.34;5062238;28;45614;-77
2022/05/03 07:52:58;;;;;;;;;36.00;32.00;;;;;30.39;20.74;101283.47;5061100;27;45406;-78
2022/05/03 07:55:24;;;;;;;;;37.33;31.67;;;;;30.22;20.49;101267.06;5064359;28;47258;-78
2022/05/03 07:57:49;;;;;;;;;34.00;29.33;;;;;30.24;20.46;101281.56;5063559;27;45702;-77
2022/05/03 08:00:15;;;;;;;;;38.33;33.67;;;;;30.16;20.36;101261.97;5063989;28;45570;-78
2022/05/03 08:02:41;;;;;;;;;35.00;32.00;;;;;30.02;20.15;101249.91;5061755;28;45735;-77
2022/05/03 08:05:08;;;;;;;;;33.00;32.00;;;;;30.23;20.35;101277.94;5061616;28;45993;-76
2022/05/03 08:07:34;;;;;;;;;33.33;31.00;;;;;30.32;20.77;101273.78;5061053;27;45481;-77
2022/05/03 08:10:00;;;;;;;;;31.33;29.67;;;;;30.59;20.46;101292.41;5058273;27;45569;-77
2022/05/03 08:12:25;;;;;;;;;35.00;30.33;;;;;30.42;20.88;101272.34;5060019;28;46245;-76
2022/05/03 08:14:52;;;;;;;;;35.00;32.67;;;;;30.33;20.89;101272.84;5062918;28;45820;-77
2022/05/03 08:17:17;;;;;;;;;35.00;29.67;;;;;30.62;20.15;101297.72;5062428;28;45926;-77
2022/05/03 08:19:42;;;;;;;;;33.67;32.00;;;;;30.43;20.01;101265.91;5063397;28;45481;-77
2022/05/03 08:22:08;;;;;;;;;37.33;32.33;;;;;30.29;20.33;101268.50;5062146;27;45461;-78
2022/05/03 08:24:33;;;;;;;;;34.00;32.00;;;;;30.67;20.03;101287.38;5067208;27;47903;-78
2022/05/03 08:26:59;;;;;;;;;32.33;31.33;;;;;30.77;19.84;101301.44;5061516;28;45413;-76
2022/05/03 08:29:27;;;;;;;;;34.33;31.33;;;;;30.66;20.31;101306.63;5061181;27;45465;-77
2022/05/03 08:31:53;;;;;;;;;36.67;31.00;;;;;30.76;20.65;101286.00;5059443;27;46465;-77
2022/05/03 08:34:18;;;;;;;;;35.00;31.00;;;;;30.83;19.99;101286.50;5060241;27;45541;-77
2022/05/03 08:42:01;;;;;;;;;34.67;31.33;;;;;30.71;20.33;101279.88;5059850;28;45906;-77
2022/05/03 08:42:15;;;;;;;;;32.00;29.00;;;;;31.07;20.20;101296.06;5063231;28;45524;-78
2022/05/03 08:44:40;;;;;;;;;33.33;30.67;;;;;31.17;19.85;101312.84;5060479;28;45643;-77
2022/05/03 08:47:06;;;;;;;;;34.67;32.00;;;;;30.80;20.28;101271.13;5058715;28;46309;-76
2022/05/03 08:49:56;;;;;;;;;31.00;29.33;;;;;31.15;19.85;101308.44;5063456;28;45569;-76
2022/05/03 08:52:23;;;;;;;;;32.67;31.67;;;;;31.09;20.03;101285.88;5057352;28;45567;-77
2022/05/03 08:54:49;;;;;;;;;33.67;27.67;;;;;31.06;20.39;101309.88;5064127;28;45567;-77
2022/05/03 08:57:18;;;;;;;;;30.33;28.00;;;;;31.14;20.19;101299.34;5056811;27;45391;-76
2022/05/03 08:59:45;;;;;;;;;30.00;28.67;;;;;31.13;20.21;101282.00;5065248;27;45995;-78
2022/05/03 09:02:11;;;;;;;;;31.33;31.00;;;;;31.18;19.58;101286.31;5062550;27;45985;-77
2022/05/03 09:04:36;;;;;;;;;28.67;28.00;;;;;31.31;20.06;101284.63;5061879;28;48113;-75
2022/05/03 09:07:19;;;;;;;;;27.67;25.00;;;;;31.68;19.21;101307.09;5060047;27;45792;-77
2022/05/03 09:09:44;;;;;;;;;27.33;24.00;;;;;31.73;19.52;101274.78;5059568;28;45553;-77
2022/05/03 09:12:30;;;;;;;;;27.33;25.67;;;;;31.93;19.43;101286.38;5061103;27;45592;-77
2022/05/03 09:15:01;;;;;;;;;29.00;28.00;;;;;31.59;18.96;101258.28;5059518;28;46131;-77
2022/05/03 09:17:44;;;;;;;;;27.67;27.67;;;;;31.74;19.48;101303.09;5063078;28;45927;-77
2022/05/03 09:26:08;;;;;;;;;25.33;25.33;;;;;31.69;18.89;101264.06;5061833;27;45780;-77
2022/05/03 09:28:47;;;;;;;;;29.00;28.67;;;;;31.65;18.88;101271.63;5055302;28;45512;-77
2022/05/03 09:31:14;;;;;;;;;27.67;25.00;;;;;31.93;18.72;101309.19;5054493;28;45485;-78
2022/05/03 09:33:39;;;;;;;;;28.67;26.00;;;;;31.72;18.94;101261.16;5061936;27;45712;-77
2022/05/03 09:36:09;;;;;;;;;27.67;25.67;;;;;31.93;18.85;101286.38;5062489;28;46995;-78
2022/05/03 09:38:49;;;;;;;;;25.00;24.67;;;;;32.23;18.33;101299.16;5059346;28;45572;-77
2022/05/03 09:41:15;;;;;;;;;26.67;24.00;;;;;31.95;18.07;101266.06;5060435;28;45523;-77
2022/05/03 09:44:07;;;;;;;;;28.00;25.00;;;;;32.13;18.35;101279.59;5060132;28;45365;-77
2022/05/03 09:46:54;;;;;;;;;25.33;24.67;;;;;32.24;18.58;101282.59;5055050;28;45545;-77
2022/05/03 09:49:34;;;;;;;;;27.00;23.67;;;;;32.39;18.44;101275.22;5058064;28;45829;-78
2022/05/03 09:51:59;;;;;;;;;25.33;23.33;;;;;32.67;18.59;101289.88;5060297;28;45479;-77
2022/05/03 09:54:28;;;;;;;;;29.00;23.67;;;;;32.79;18.51;101289.09;5054755;28;45573;-78
2022/05/03 09:56:54;;;;;;;;;28.67;27.00;;;;;32.98;18.49;101282.38;5057778;28;48345;-75
2022/05/03 09:59:20;;;;;;;;;25.67;22.67;;;;;32.98;17.99;101290.63;5058899;28;45500;-79
2022/05/03 10:01:46;;;;;;;;;27.33;25.33;;;;;33.03;18.33;101295.81;5063068;28;45488;-75
2022/05/03 10:04:13;;;;;;;;;25.67;23.67;;;;;33.12;18.39;101278.69;5059371;28;45654;-77
2022/05/03 10:06:40;;;;;;;;;24.67;22.67;;;;;32.82;17.98;101274.28;5060685;28;45620;-77
2022/05/03 10:09:07;;;;;;;;;29.33;26.67;;;;;32.76;17.78;101278.31;5061526;27;45434;-77
2022/05/03 10:11:34;;;;;;;;;28.00;27.33;;;;;32.76;18.35;101286.56;5059817;28;45524;-77
2022/05/03 10:13:59;;;;;;;;;33.00;25.00;;;;;32.81;18.25;101287.16;5061869;28;45476;-76
2022/05/03 10:22:03;;;;;;;;;28.00;27.00;;;;;33.03;18.67;101295.81;5059907;28;45605;-76
2022/05/03 10:24:31;;;;;;;;;29.00;25.00;;;;;33.25;18.39;101287.00;5057564;28;45505;-76
2022/05/03 10:27:01;;;;;;;;;24.00;21.67;;;;;33.27;18.21;101274.03;5059897;27;46426;-76
2022/05/03 10:29:29;;;;;;;;;20.33;20.33;;;;;33.46;17.88;101284.63;5074061;27;45641;-79
2022/05/03 10:32:15;;;;;;;;;21.67;21.67;;;;;33.66;17.50;101283.28;5063593;28;45509;-77
2022/05/03 10:34:53;;;;;;;;;23.67;23.67;;;;;33.49;17.00;101277.06;5054590;28;45752;-78
2022/05/03 10:37:33;;;;;;;;;24.00;22.33;;;;;33.56;17.32;101283.03;5054443;28;47997;-78
2022/05/03 10:40:13;;;;;;;;;28.33;25.67;;;;;33.37;17.59;101288.03;5057807;28;45502;-76
2022/05/03 10:42:39;;;;;;;;;24.67;24.67;;;;;33.11;17.75;101258.56;5052610;28;45737;-77
2022/05/03 10:45:09;;;;;;;;;23.33;21.33;;;;;33.26;17.59;101281.41;5057341;28;45552;-76
2022/05/03 10:47:53;;;;;;;;;20.67;20.67;;;;;33.36;17.67;101254.13;5061800;28;45454;-77
2022/05/03 10:50:22;;;;;;;;;21.00;19.33;;;;;33.92;17.88;101272.31;5055715;28;45421;-80
2022/05/03 10:52:54;;;;;;;;;23.00;21.00;;;;;33.84;16.52;101278.38;5057214;27;45549;-77
2022/05/03 10:55:20;;;;;;;;;22.67;20.67;;;;;33.30;17.19;101232.59;5048311;28;45714;-77
2022/05/03 10:58:20;;;;;;;;;25.00;23.00;;;;;33.50;16.90;101273.34;5059328;28;46140;-77
2022/05/03 11:01:10;;;;;;;;;21.67;20.00;;;;;33.51;17.36;101274.22;5061022;28;45463;-77
2022/05/03 11:03:58;;;;;;;;;25.67;24.67;;;;;33.71;17.01;101260.91;5062994;27;45545;-76
2022/05/03 11:06:25;;;;;;;;;27.00;23.33;;;;;33.87;16.70;101272.63;5062048;28;45588;-76
2022/05/03 11:09:05;;;;;;;;;23.33;23.33;;;;;33.88;16.99;101271.63;5064507;27;46017;-75
2022/05/03 11:11:39;;;;;;;;;23.00;21.67;;;;;33.63;17.35;101266.94;5068075;28;45465;-75
2022/05/03 11:14:21;;;;;;;;;24.67;23.00;;;;;33.71;16.96;101275.53;5062915;28;45556;-75
2022/05/03 11:17:01;;;;;;;;;23.67;21.33;;;;;33.94;17.09;101271.22;5066391;28;45560;-76
2022/05/03 11:19:27;;;;;;;;;22.00;22.00;;;;;33.99;17.14;101248.84;5064833;28;47406;-76
2022/05/03 11:21:53;;;;;;;;;25.67;22.67;;;;;34.13;17.24;101234.06;5067881;27;45554;-76
2022/05/03 11:24:20;;;;;;;;;27.00;21.67;;;;;34.17;17.10;101266.78;5059579;28;45445;-76
2022/05/03 11:26:47;;;;;;;;;22.67;22.67;;;;;34.08;16.62;101256.44;5072661;27;45523;-75
2022/05/03 11:29:14;;;;;;;;;22.33;21.33;;;;;34.04;17.13;101263.16;5061809;28;45407;-75
2022/05/03 11:31:46;;;;;;;;;25.00;22.00;;;;;34.19;16.88;101248.28;5029298;27;45576;-75
2022/05/03 11:34:11;;;;;;;;;22.33;19.33;;;;;34.24;17.03;101247.06;5067252;28;45454;-75
2022/05/03 11:36:38;;;;;;;;;22.67;21.33;;;;;34.18;17.06;101224.47;5066451;28;45610;-75
2022/05/03 11:39:03;;;;;;;;;26.33;22.00;;;;;34.39;16.83;101237.69;5062744;28;45576;-77
2022/05/03 11:41:30;;;;;;;;;26.33;26.00;;;;;34.22;16.60;101240.78;5065281;28;45453;-77
2022/05/03 11:43:56;;;;;;;;;24.67;23.00;;;;;34.22;16.59;101249.94;5065282;28;45827;-76
2022/05/03 11:46:23;;;;;;;;;24.00;23.33;;;;;34.45;16.75;101239.97;5069299;27;45454;-77
2022/05/03 11:49:01;;;;;;;;;23.67;22.67;;;;;34.77;16.48;101233.94;5067790;28;45671;-76
2022/05/03 11:57:11;;;;;;;;;25.00;23.67;;;;;34.96;16.43;101238.06;5063670;28;45411;-75
2022/05/03 11:59:41;;;;;;;;;23.33;23.33;;;;;35.14;16.27;101227.50;5064328;28;46183;-74